Time;durP1;ratioP1;P1;durP2;ratioP2;P2;SDS_P1;SDS_P2;PMS_P1;PMS_P2;Temp;Humidity;BMP_temperature;BMP_pressure;BME280_temperature;BME280_humidity;BME280_pressure;Samples;Min_cycle;Max_cycle;Signal;HPM_P1;HPM_P2
2022/05/24 00:01:07;;;;;;;7.60;5.70;;;15.10;99.90;;;;;;5051164;28;20232;-77
2022/05/24 00:03:36;;;;;;;9.20;6.30;;;15.10;99.90;;;;;;5045912;28;20224;-78
2022/05/24 00:06:03;;;;;;;6.87;5.80;;;15.10;99.90;;;;;;5060836;28;20224;-78
2022/05/24 00:08:31;;;;;;;5.53;5.03;;;15.20;99.90;;;;;;5068176;28;20280;-78
2022/05/24 00:10:58;;;;;;;6.97;6.07;;;15.20;99.90;;;;;;5060405;28;20219;-78
2022/05/24 00:13:25;;;;;;;10.57;5.90;;;15.20;99.90;;;;;;5055438;28;20861;-78
2022/05/24 00:15:52;;;;;;;6.83;5.70;;;15.20;99.90;;;;;;5065256;28;20229;-78
2022/05/24 00:18:23;;;;;;;6.67;5.70;;;15.20;99.90;;;;;;5054366;28;20250;-78
2022/05/24 00:20:52;;;;;;;7.67;5.07;;;15.30;99.90;;;;;;5065995;28;20219;-78
2022/05/24 00:23:21;;;;;;;6.87;4.83;;;15.20;99.90;;;;;;5057209;28;20224;-78
2022/05/24 00:25:52;;;;;;;7.53;5.47;;;15.20;99.90;;;;;;5056132;28;20302;-77
2022/05/24 00:28:19;;;;;;;6.87;5.90;;;15.30;99.90;;;;;;5064546;28;20277;-78
2022/05/24 00:30:47;;;;;;;6.67;5.57;;;15.30;99.90;;;;;;5063998;28;20235;-78
2022/05/24 00:33:15;;;;;;;5.87;5.27;;;15.30;99.90;;;;;;5046768;28;20232;-78
2022/05/24 00:35:43;;;;;;;5.10;4.60;;;15.30;99.90;;;;;;5065520;28;20715;-78
2022/05/24 00:38:13;;;;;;;6.30;5.30;;;15.30;99.90;;;;;;5066086;28;20254;-78
2022/05/24 00:40:48;;;;;;;5.73;5.17;;;15.30;99.90;;;;;;5068046;28;20613;-79
2022/05/24 00:43:25;;;;;;;6.23;5.27;;;15.30;99.90;;;;;;5044942;28;20662;-79
2022/05/24 00:45:57;;;;;;;8.93;5.63;;;15.30;99.90;;;;;;5045823;28;20254;-81
2022/05/24 00:48:29;;;;;;;10.43;5.73;;;15.20;99.90;;;;;;5046363;28;20224;-81
2022/05/24 00:50:57;;;;;;;7.00;5.63;;;15.20;99.90;;;;;;5065407;28;20215;-79
2022/05/24 00:53:30;;;;;;;7.57;6.73;;;15.10;99.90;;;;;;5064870;28;20246;-79
2022/05/24 00:56:02;;;;;;;7.60;6.10;;;15.10;99.90;;;;;;5056220;28;20272;-79
2022/05/24 00:58:39;;;;;;;8.90;6.20;;;15.00;99.90;;;;;;5064081;28;20236;-80
2022/05/24 01:01:16;;;;;;;7.60;6.00;;;15.00;99.90;;;;;;5066781;28;20234;-79
2022/05/24 01:03:43;;;;;;;7.90;6.30;;;14.90;99.90;;;;;;5051223;28;20417;-79
2022/05/24 01:06:10;;;;;;;7.83;6.90;;;14.80;99.90;;;;;;5057324;28;20748;-78
2022/05/24 01:08:40;;;;;;;7.83;7.03;;;14.70;99.90;;;;;;5066217;28;20331;-77
2022/05/24 01:11:11;;;;;;;9.43;7.30;;;14.60;99.90;;;;;;5065237;28;20231;-78
2022/05/24 01:13:39;;;;;;;10.03;7.60;;;14.50;99.90;;;;;;5056282;28;20230;-77
2022/05/24 01:16:07;;;;;;;8.83;7.07;;;14.50;99.90;;;;;;5064723;28;20234;-78
2022/05/24 01:18:34;;;;;;;9.60;7.27;;;14.50;99.90;;;;;;5048913;28;20236;-77
2022/05/24 01:21:04;;;;;;;9.80;7.53;;;14.50;99.90;;;;;;5050397;28;20721;-77
2022/05/24 01:23:41;;;;;;;9.90;8.03;;;14.50;99.90;;;;;;5058065;28;20228;-77
2022/05/24 01:26:15;;;;;;;8.67;7.80;;;14.50;99.90;;;;;;5045639;28;20224;-77
2022/05/24 01:28:49;;;;;;;10.07;7.33;;;14.50;99.90;;;;;;5044777;28;20262;-77
2022/05/24 01:31:16;;;;;;;9.93;7.33;;;14.50;99.90;;;;;;5046560;28;20231;-78
2022/05/24 01:36:32;;;;;;;9.30;8.40;;;14.60;99.90;;;;;;5045240;28;20219;-77
2022/05/24 01:39:06;;;;;;;9.70;8.07;;;14.60;99.90;;;;;;5047547;28;20241;-78
2022/05/24 01:41:37;;;;;;;10.00;7.87;;;14.60;99.90;;;;;;5045380;28;20486;-78
2022/05/24 01:44:08;;;;;;;11.87;8.10;;;14.70;99.90;;;;;;5056961;28;20696;-78
2022/05/24 01:46:39;;;;;;;12.17;7.53;;;14.70;99.90;;;;;;5066497;28;20239;-78
2022/05/24 01:49:09;;;;;;;8.57;7.83;;;14.70;99.90;;;;;;5066363;28;20230;-78
2022/05/24 01:51:42;;;;;;;9.97;8.30;;;14.70;99.90;;;;;;5066161;28;20223;-78
2022/05/24 01:54:11;;;;;;;10.83;8.70;;;14.80;99.90;;;;;;5065169;28;20261;-77
2022/05/24 01:56:45;;;;;;;10.23;8.70;;;14.80;99.90;;;;;;5066366;28;20214;-78
2022/05/24 01:59:14;;;;;;;10.07;9.07;;;14.90;99.90;;;;;;5062605;28;20234;-78
2022/05/24 02:01:48;;;;;;;11.13;9.83;;;14.90;99.90;;;;;;5050350;28;20227;-77
2022/05/24 02:04:15;;;;;;;11.03;9.97;;;14.90;99.90;;;;;;5047509;28;20676;-77
2022/05/24 02:06:42;;;;;;;10.57;9.57;;;14.90;99.90;;;;;;5047454;28;20223;-77
2022/05/24 02:09:10;;;;;;;9.90;8.73;;;15.00;99.90;;;;;;5047491;28;20304;-77
2022/05/24 02:11:38;;;;;;;8.87;7.37;;;14.90;99.90;;;;;;5049270;28;20228;-77
2022/05/24 02:14:16;;;;;;;7.13;6.43;;;14.90;99.90;;;;;;5066076;28;20337;-77
2022/05/24 02:16:50;;;;;;;6.03;5.47;;;14.90;99.90;;;;;;5069308;28;20249;-77
2022/05/24 02:19:19;;;;;;;5.13;4.63;;;15.00;99.90;;;;;;5066772;28;20238;-78
2022/05/24 02:21:48;;;;;;;4.57;4.17;;;15.00;99.90;;;;;;5067939;28;20222;-78
2022/05/24 02:24:18;;;;;;;4.30;3.87;;;14.90;99.90;;;;;;5047560;28;20242;-79
2022/05/24 02:26:46;;;;;;;5.00;3.40;;;14.90;99.90;;;;;;5048894;28;20232;-79
2022/05/24 02:29:15;;;;;;;3.43;3.10;;;14.90;99.90;;;;;;5048221;28;20238;-80
2022/05/24 02:31:42;;;;;;;3.77;3.00;;;14.80;99.90;;;;;;5048900;28;20262;-79
2022/05/24 02:34:09;;;;;;;5.80;3.40;;;14.80;99.90;;;;;;5047517;28;20289;-80
2022/05/24 02:36:36;;;;;;;8.03;4.20;;;14.70;99.90;;;;;;5059522;28;20239;-79
2022/05/24 02:39:03;;;;;;;4.40;3.80;;;14.70;99.90;;;;;;5070793;28;20224;-79
2022/05/24 02:41:31;;;;;;;4.70;4.03;;;14.60;99.90;;;;;;5068514;28;20223;-78
2022/05/24 02:44:04;;;;;;;6.03;4.23;;;14.60;99.90;;;;;;5067480;28;20571;-78
2022/05/24 02:46:34;;;;;;;6.53;5.10;;;14.50;99.90;;;;;;5051835;28;20321;-78
2022/05/24 02:49:01;;;;;;;6.83;5.00;;;14.40;99.90;;;;;;5048107;28;20707;-78
2022/05/24 02:51:28;;;;;;;5.60;5.07;;;14.40;99.90;;;;;;5047602;28;20307;-78
2022/05/24 02:53:55;;;;;;;7.10;5.27;;;14.30;99.90;;;;;;5048595;28;20220;-78
2022/05/24 02:56:23;;;;;;;6.40;5.70;;;14.30;99.90;;;;;;5050015;28;20249;-77
2022/05/24 02:58:50;;;;;;;6.90;5.60;;;14.30;99.90;;;;;;5066981;28;20670;-77
2022/05/24 03:01:21;;;;;;;8.30;6.17;;;14.30;99.90;;;;;;5067789;28;20887;-78
2022/05/24 03:03:51;;;;;;;9.30;7.13;;;14.30;99.90;;;;;;5048462;28;20227;-78
2022/05/24 03:06:19;;;;;;;9.33;7.90;;;14.30;99.90;;;;;;5047602;28;20228;-77
2022/05/24 03:14:14;;;;;;;9.47;8.57;;;14.30;99.90;;;;;;5066805;28;20223;-77
2022/05/24 03:14:19;;;;;;;10.20;9.03;;;14.30;99.90;;;;;;5067278;28;20226;-77
2022/05/24 03:16:47;;;;;;;13.57;10.00;;;14.20;99.90;;;;;;5068686;28;20227;-78
2022/05/24 03:19:15;;;;;;;13.47;10.70;;;14.20;99.90;;;;;;5062266;28;20223;-78
2022/05/24 03:21:43;;;;;;;16.83;10.93;;;14.20;99.90;;;;;;5049282;28;21039;-78
2022/05/24 03:24:09;;;;;;;14.63;11.03;;;14.20;99.90;;;;;;5049603;28;20381;-79
2022/05/24 03:26:36;;;;;;;13.47;10.93;;;14.20;99.90;;;;;;5047759;28;20228;-78
2022/05/24 03:29:03;;;;;;;13.50;10.90;;;14.20;99.90;;;;;;5047199;28;20240;-78
2022/05/24 03:31:31;;;;;;;13.53;11.33;;;14.20;99.90;;;;;;5047701;28;20224;-77
2022/05/24 03:33:58;;;;;;;13.43;10.13;;;14.10;99.90;;;;;;5046137;28;20249;-76
2022/05/24 03:36:30;;;;;;;13.97;9.87;;;14.10;99.90;;;;;;5046152;28;20236;-77
2022/05/24 03:38:57;;;;;;;12.17;8.90;;;14.10;99.90;;;;;;5045280;28;20230;-77
2022/05/24 03:41:24;;;;;;;12.40;9.30;;;14.10;99.90;;;;;;5061937;28;20692;-77
2022/05/24 03:43:50;;;;;;;11.63;9.20;;;14.00;99.90;;;;;;5045967;28;20242;-77
2022/05/24 03:46:18;;;;;;;14.17;9.67;;;14.00;99.90;;;;;;5051041;28;20242;-77
2022/05/24 03:48:44;;;;;;;12.37;9.43;;;14.00;99.90;;;;;;5065289;28;20234;-77
2022/05/24 03:51:11;;;;;;;10.53;9.13;;;14.00;99.90;;;;;;5060294;28;20274;-77
2022/05/24 03:53:39;;;;;;;11.87;9.63;;;14.00;99.90;;;;;;5047307;28;21034;-78
2022/05/24 03:56:06;;;;;;;10.43;9.37;;;14.00;99.90;;;;;;5066097;28;20235;-78
2022/05/24 03:58:33;;;;;;;11.83;9.43;;;14.00;99.90;;;;;;5058795;28;20232;-78
2022/05/24 04:01:01;;;;;;;15.67;9.63;;;14.00;99.90;;;;;;5067727;28;20234;-77
2022/05/24 04:03:28;;;;;;;14.00;9.30;;;14.00;99.90;;;;;;5049655;28;20231;-77
2022/05/24 04:05:54;;;;;;;11.50;9.30;;;14.00;99.90;;;;;;5047212;28;20231;-78
2022/05/24 04:08:26;;;;;;;11.37;8.77;;;14.00;99.90;;;;;;5046867;28;20621;-77
2022/05/24 04:11:01;;;;;;;11.37;8.87;;;14.00;99.90;;;;;;5046317;28;20301;-77
2022/05/24 04:13:27;;;;;;;10.03;8.50;;;14.00;99.90;;;;;;5044252;28;20250;-77
2022/05/24 04:15:57;;;;;;;9.67;7.90;;;14.00;99.90;;;;;;5045999;28;20220;-77
2022/05/24 04:18:26;;;;;;;8.03;6.83;;;14.00;99.90;;;;;;5044395;28;20231;-76
2022/05/24 04:20:54;;;;;;;8.93;7.00;;;14.00;99.90;;;;;;5045613;28;20601;-77
2022/05/24 04:23:22;;;;;;;8.57;6.67;;;14.00;99.90;;;;;;5044683;28;20234;-76
2022/05/24 04:25:49;;;;;;;11.17;7.20;;;14.00;99.90;;;;;;5045708;28;20318;-75
2022/05/24 04:28:18;;;;;;;6.73;5.73;;;14.00;99.90;;;;;;5044623;28;20242;-76
2022/05/24 04:30:45;;;;;;;7.57;5.73;;;14.10;99.90;;;;;;5045091;28;20699;-77
2022/05/24 04:33:13;;;;;;;7.27;5.53;;;14.10;99.90;;;;;;5060986;28;20219;-76
2022/05/24 04:35:41;;;;;;;8.03;5.10;;;14.10;99.90;;;;;;5065785;28;20225;-78
2022/05/24 04:38:08;;;;;;;6.33;5.00;;;14.10;99.90;;;;;;5065516;28;20238;-76
2022/05/24 04:43:20;;;;;;;8.57;4.70;;;14.20;99.90;;;;;;5063801;28;20608;-76
2022/05/24 04:45:47;;;;;;;7.27;5.17;;;14.20;99.90;;;;;;5064606;28;20238;-76
2022/05/24 04:48:14;;;;;;;7.50;4.63;;;14.20;99.90;;;;;;5064018;28;20731;-76
2022/05/24 04:50:41;;;;;;;5.37;4.40;;;14.20;99.90;;;;;;5064817;28;20227;-77
2022/05/24 04:53:08;;;;;;;5.40;4.20;;;14.20;99.90;;;;;;5063715;28;20633;-76
2022/05/24 04:55:35;;;;;;;7.07;4.60;;;14.20;99.90;;;;;;5065478;28;20322;-76
2022/05/24 04:58:02;;;;;;;5.40;4.70;;;14.20;99.90;;;;;;5061906;28;20223;-76
2022/05/24 05:00:30;;;;;;;6.07;4.17;;;14.20;99.90;;;;;;5063754;28;20233;-76
2022/05/24 05:02:57;;;;;;;4.20;3.50;;;14.20;99.90;;;;;;5062377;28;20308;-74
2022/05/24 05:05:23;;;;;;;6.70;4.40;;;14.20;99.90;;;;;;5063446;28;20234;-76
2022/05/24 05:07:50;;;;;;;7.47;3.90;;;14.20;99.90;;;;;;5064868;28;20222;-76
2022/05/24 05:10:17;;;;;;;5.80;4.10;;;14.20;99.90;;;;;;5064581;28;20226;-76
2022/05/24 05:12:46;;;;;;;6.03;4.27;;;14.20;99.90;;;;;;5049692;28;20227;-77
2022/05/24 05:15:14;;;;;;;5.40;3.90;;;14.10;99.90;;;;;;5062339;28;20242;-76
2022/05/24 05:17:42;;;;;;;5.77;3.97;;;14.10;99.90;;;;;;5043165;28;20223;-77
2022/05/24 05:20:09;;;;;;;6.00;3.57;;;14.10;99.90;;;;;;5048518;28;20273;-77
2022/05/24 05:22:37;;;;;;;4.37;3.70;;;14.10;99.90;;;;;;5055345;28;20227;-76
2022/05/24 05:25:04;;;;;;;4.87;3.60;;;14.10;99.90;;;;;;5054691;28;20250;-77
2022/05/24 05:27:31;;;;;;;5.37;3.50;;;14.10;99.90;;;;;;5066635;28;20215;-75
2022/05/24 05:32:45;;;;;;;4.73;3.67;;;14.10;99.90;;;;;;5055917;28;20229;-77
2022/05/24 05:35:12;;;;;;;5.20;3.47;;;14.00;99.90;;;;;;5056320;28;20227;-77
2022/05/24 05:37:39;;;;;;;6.27;3.77;;;14.10;99.90;;;;;;5056346;28;20238;-75
2022/05/24 05:40:07;;;;;;;5.10;3.93;;;14.10;99.90;;;;;;5052796;28;20780;-76
2022/05/24 05:42:35;;;;;;;5.37;3.57;;;14.10;99.90;;;;;;5056246;28;20282;-75
2022/05/24 05:45:03;;;;;;;5.40;3.97;;;14.20;99.90;;;;;;5053997;28;20235;-77
2022/05/24 05:47:30;;;;;;;7.17;3.60;;;14.30;99.90;;;;;;5052744;28;20230;-77
2022/05/24 05:49:58;;;;;;;6.53;3.93;;;14.40;99.90;;;;;;5050832;28;20320;-75
2022/05/24 05:52:25;;;;;;;5.10;3.60;;;14.50;99.90;;;;;;5048409;28;20285;-76
2022/05/24 05:54:51;;;;;;;6.23;4.10;;;14.60;99.90;;;;;;5050773;28;20300;-77
2022/05/24 05:57:18;;;;;;;6.40;4.37;;;14.70;99.90;;;;;;5058604;28;20696;-76
2022/05/24 05:59:45;;;;;;;6.87;4.40;;;14.80;99.90;;;;;;5052856;28;20238;-76
2022/05/24 06:02:12;;;;;;;5.30;4.23;;;14.90;99.90;;;;;;5058465;28;20318;-76
2022/05/24 06:04:39;;;;;;;6.13;3.87;;;15.00;99.90;;;;;;5056171;28;20229;-75
2022/05/24 06:07:07;;;;;;;5.87;4.33;;;15.10;99.90;;;;;;5059248;28;20276;-76
2022/05/24 06:09:35;;;;;;;5.27;3.90;;;15.20;99.90;;;;;;5058795;28;20250;-77
2022/05/24 06:12:02;;;;;;;5.97;3.70;;;15.20;99.90;;;;;;5048629;28;20237;-75
2022/05/24 06:14:29;;;;;;;4.63;3.77;;;15.20;99.90;;;;;;5067027;28;20222;-76
2022/05/24 06:16:56;;;;;;;4.03;3.13;;;15.30;99.90;;;;;;5062891;28;20222;-77
2022/05/24 06:19:23;;;;;;;4.53;3.53;;;15.30;99.90;;;;;;5056737;28;20788;-76
2022/05/24 06:21:51;;;;;;;5.67;4.17;;;15.30;99.90;;;;;;5068331;28;20218;-76
2022/05/24 06:24:19;;;;;;;5.30;3.50;;;15.30;99.90;;;;;;5069142;28;20310;-75
2022/05/24 06:26:50;;;;;;;4.77;3.50;;;15.30;99.90;;;;;;5067363;28;21243;-77
2022/05/24 06:29:17;;;;;;;4.97;3.70;;;15.30;99.90;;;;;;5082300;28;20773;-77
2022/05/24 06:31:46;;;;;;;4.93;3.97;;;15.30;99.90;;;;;;5082184;28;20300;-76
2022/05/24 06:34:13;;;;;;;6.30;3.80;;;15.40;99.90;;;;;;5082305;28;20231;-75
2022/05/24 06:36:43;;;;;;;5.23;3.60;;;15.40;99.90;;;;;;5087062;27;20242;-75
2022/05/24 06:39:09;;;;;;;8.00;4.33;;;15.50;99.90;;;;;;5090023;27;20272;-77
2022/05/24 06:41:38;;;;;;;7.27;5.17;;;15.50;99.90;;;;;;5078593;28;20279;-76
2022/05/24 06:44:05;;;;;;;5.03;4.10;;;15.60;99.90;;;;;;5084788;28;20272;-76
2022/05/24 06:46:33;;;;;;;5.70;4.50;;;15.70;99.90;;;;;;5081896;28;20329;-77
2022/05/24 06:49:00;;;;;;;5.63;4.47;;;15.80;99.90;;;;;;5077637;28;20219;-77
2022/05/24 06:51:27;;;;;;;4.60;4.20;;;15.90;99.90;;;;;;5085213;28;20305;-77
2022/05/24 06:53:53;;;;;;;9.53;5.13;;;16.00;99.90;;;;;;5086425;28;20278;-77
2022/05/24 06:56:21;;;;;;;5.50;5.00;;;16.00;99.90;;;;;;5083658;28;20858;-77
2022/05/24 07:02:24;;;;;;;6.93;5.13;;;16.10;99.90;;;;;;5065537;28;20282;-77
2022/05/24 07:04:24;;;;;;;6.87;4.77;;;16.20;99.90;;;;;;5077123;28;20215;-77
2022/05/24 07:06:51;;;;;;;5.73;5.10;;;16.20;99.90;;;;;;5067673;28;20300;-78
2022/05/24 07:09:17;;;;;;;5.70;5.10;;;16.20;99.90;;;;;;5082855;27;20444;-77
2022/05/24 07:11:44;;;;;;;6.33;5.00;;;16.30;99.90;;;;;;5079082;28;20319;-77
2022/05/24 07:14:12;;;;;;;5.97;4.73;;;16.30;99.90;;;;;;5065677;28;20285;-77
2022/05/24 07:16:39;;;;;;;5.43;4.93;;;16.30;99.90;;;;;;5078366;28;20786;-77
2022/05/24 07:19:06;;;;;;;5.70;5.00;;;16.30;99.90;;;;;;5081874;28;20223;-78
2022/05/24 07:21:33;;;;;;;7.77;4.90;;;16.30;99.90;;;;;;5085791;28;20252;-78
2022/05/24 07:23:59;;;;;;;5.43;4.37;;;16.40;99.90;;;;;;5085329;28;20226;-78
2022/05/24 07:26:26;;;;;;;5.30;4.70;;;16.60;99.90;;;;;;5087355;28;20229;-76
2022/05/24 07:28:53;;;;;;;5.63;5.03;;;16.80;99.90;;;;;;5083616;28;20258;-75
2022/05/24 07:31:21;;;;;;;6.50;4.80;;;17.00;99.90;;;;;;5075257;28;20314;-77
2022/05/24 07:33:48;;;;;;;6.67;5.13;;;17.20;99.90;;;;;;5083036;28;20241;-77
2022/05/24 07:36:15;;;;;;;6.83;4.90;;;17.30;99.90;;;;;;5088132;28;20229;-79
2022/05/24 07:38:41;;;;;;;7.35;5.20;;;17.40;99.90;;;;;;5086245;28;20215;-75
2022/05/24 07:46:38;;;;;;;6.90;5.43;;;17.90;99.80;;;;;;5084494;27;20274;-75
2022/05/24 07:49:05;;;;;;;8.23;5.90;;;18.20;99.30;;;;;;5085238;28;20229;-76
2022/05/24 07:51:32;;;;;;;7.55;5.00;;;18.40;98.70;;;;;;5085120;27;20875;-76
2022/05/24 07:53:58;;;;;;;6.35;5.65;;;18.50;98.50;;;;;;5078692;28;20276;-76
2022/05/24 07:56:25;;;;;;;5.60;5.10;;;18.60;98.10;;;;;;5084310;27;20225;-75
2022/05/24 07:58:52;;;;;;;7.25;5.57;;;18.60;98.30;;;;;;5064715;28;20219;-76
2022/05/24 08:01:19;;;;;;;7.07;6.10;;;18.60;98.10;;;;;;5058772;28;20302;-76
2022/05/24 08:03:47;;;;;;;7.78;5.95;;;18.60;97.90;;;;;;5057129;28;20227;-76
2022/05/24 08:06:15;;;;;;;6.03;5.50;;;18.50;97.70;;;;;;5064410;28;20754;-76
2022/05/24 08:08:42;;;;;;;7.80;6.90;;;18.60;97.90;;;;;;5059208;28;20223;-76
2022/05/24 08:11:09;;;;;;;7.30;6.55;;;18.50;97.50;;;;;;5062526;28;20227;-76
2022/05/24 08:13:36;;;;;;;7.43;6.25;;;18.50;97.50;;;;;;5055386;28;20708;-76
2022/05/24 08:16:05;;;;;;;9.90;7.15;;;18.50;97.70;;;;;;5062985;28;20226;-76
2022/05/24 08:18:32;;;;;;;7.07;5.93;;;18.40;97.70;;;;;;5065882;28;20758;-75
2022/05/24 08:21:01;;;;;;;6.88;6.18;;;18.40;97.70;;;;;;5068962;28;20226;-76
2022/05/24 08:23:29;;;;;;;7.40;6.57;;;18.30;97.50;;;;;;5081354;28;20652;-75
2022/05/24 08:25:56;;;;;;;8.23;6.70;;;18.30;97.50;;;;;;5080997;28;20221;-76
2022/05/24 08:28:24;;;;;;;8.32;7.07;;;18.30;97.50;;;;;;5084033;27;20225;-76
2022/05/24 08:30:53;;;;;;;10.70;7.25;;;18.20;97.60;;;;;;5084383;27;20226;-76
2022/05/24 08:33:22;;;;;;;8.80;7.00;;;18.20;97.90;;;;;;5083148;28;20250;-75
2022/05/24 08:35:49;;;;;;;7.88;7.07;;;18.20;97.90;;;;;;5084826;27;20230;-76
2022/05/24 08:38:18;;;;;;;8.13;7.15;;;18.30;97.70;;;;;;5085009;27;20226;-76
2022/05/24 08:40:47;;;;;;;7.43;6.15;;;18.50;97.90;;;;;;5084940;27;20223;-76
2022/05/24 08:43:37;;;;;;;7.15;6.45;;;18.80;97.80;;;;;;5082898;27;20630;-75
2022/05/24 08:48:59;;;;;;;10.02;6.95;;;19.60;96.30;;;;;;5083697;27;20242;-76
2022/05/24 08:51:28;;;;;;;8.88;6.75;;;19.90;96.00;;;;;;5081575;28;20234;-76
2022/05/24 08:54:01;;;;;;;8.77;7.00;;;20.10;95.30;;;;;;5078463;28;20250;-76
2022/05/24 08:56:32;;;;;;;8.38;6.18;;;20.10;94.90;;;;;;5079895;28;20229;-75
2022/05/24 08:59:07;;;;;;;8.07;6.40;;;20.10;94.80;;;;;;5078744;27;20222;-76
2022/05/24 09:01:35;;;;;;;6.68;5.60;;;20.00;94.70;;;;;;5062994;28;20757;-76
2022/05/24 09:04:03;;;;;;;7.45;5.38;;;20.00;95.30;;;;;;5045446;28;20251;-77
2022/05/24 09:06:38;;;;;;;7.20;5.85;;;20.00;95.00;;;;;;5055969;28;20227;-76
2022/05/24 09:09:21;;;;;;;6.32;5.15;;;19.90;95.00;;;;;;5054681;28;20233;-76
2022/05/24 09:12:01;;;;;;;7.15;5.55;;;20.00;95.10;;;;;;5055739;28;20222;-76
2022/05/24 09:14:34;;;;;;;7.30;5.72;;;20.10;94.60;;;;;;5054719;28;20301;-76
2022/05/24 09:17:11;;;;;;;7.25;5.80;;;20.00;94.20;;;;;;5049687;28;20303;-77
2022/05/24 09:19:42;;;;;;;9.05;5.55;;;20.00;94.30;;;;;;5073510;28;20862;-76
2022/05/24 09:22:11;;;;;;;8.23;5.78;;;19.90;94.30;;;;;;5078168;28;20226;-75
2022/05/24 09:24:45;;;;;;;7.50;5.32;;;19.80;94.30;;;;;;5077639;28;20233;-76
2022/05/24 09:27:16;;;;;;;9.80;6.13;;;19.80;94.70;;;;;;5057504;28;20655;-76
2022/05/24 09:30:09;;;;;;;6.75;6.13;;;20.00;94.80;;;;;;5092806;28;20288;-77
2022/05/24 09:32:39;;;;;;;7.03;5.65;;;20.40;94.30;;;;;;5072257;28;20226;-76
2022/05/24 09:35:22;;;;;;;7.43;6.65;;;20.80;93.90;;;;;;5075484;27;20226;-76
2022/05/24 09:38:13;;;;;;;9.32;7.28;;;21.20;93.40;;;;;;5074495;28;20242;-76
2022/05/24 09:40:58;;;;;;;7.80;6.38;;;21.60;92.60;;;;;;5055261;28;20826;-75
2022/05/24 09:43:29;;;;;;;8.20;6.85;;;22.00;91.70;;;;;;5059855;28;20290;-76
2022/05/24 09:46:05;;;;;;;6.72;5.32;;;22.20;91.40;;;;;;5052786;28;20218;-77
2022/05/24 09:48:35;;;;;;;6.20;5.28;;;22.20;90.60;;;;;;5053961;28;20223;-75
2022/05/24 09:51:04;;;;;;;7.43;5.95;;;22.40;90.60;;;;;;5043328;28;21099;-76
2022/05/24 09:53:33;;;;;;;6.28;5.65;;;22.40;89.00;;;;;;5062220;28;20231;-76
2022/05/24 09:56:05;;;;;;;8.88;6.25;;;22.40;88.50;;;;;;5054638;28;20211;-76
2022/05/24 09:58:36;;;;;;;8.93;6.55;;;22.30;88.50;;;;;;5056546;28;20219;-76
2022/05/24 10:01:07;;;;;;;7.43;6.03;;;22.10;88.50;;;;;;5047653;28;20315;-77
2022/05/24 10:03:37;;;;;;;7.40;5.38;;;22.10;89.80;;;;;;5078138;28;20258;-76
2022/05/24 10:06:20;;;;;;;8.00;5.82;;;22.00;89.40;;;;;;5072015;27;20272;-76
2022/05/24 10:08:51;;;;;;;7.57;6.05;;;22.00;88.20;;;;;;5059196;28;20232;-76
2022/05/24 10:11:35;;;;;;;8.05;6.30;;;22.00;88.20;;;;;;5070322;28;20226;-76
2022/05/24 10:14:20;;;;;;;7.20;6.50;;;22.00;86.50;;;;;;5075688;28;20341;-76
2022/05/24 10:16:52;;;;;;;7.45;6.30;;;21.90;86.80;;;;;;5079899;28;20806;-77
2022/05/24 10:19:47;;;;;;;7.40;6.57;;;21.80;86.80;;;;;;5077305;28;20252;-77
2022/05/24 10:22:26;;;;;;;7.45;6.45;;;21.60;86.20;;;;;;5077060;28;20233;-77
2022/05/24 10:25:06;;;;;;;9.27;6.25;;;21.40;86.80;;;;;;5084429;28;20309;-77
2022/05/24 10:27:43;;;;;;;7.78;6.00;;;21.10;89.00;;;;;;5078431;28;20297;-76
2022/05/24 10:30:16;;;;;;;6.40;4.80;;;20.80;89.60;;;;;;5078820;28;20218;-77
2022/05/24 10:38:52;;;;;;;6.47;5.47;;;19.60;89.40;;;;;;5065478;28;20223;-75
2022/05/24 10:41:25;;;;;;;8.93;6.10;;;19.20;90.20;;;;;;5051105;28;20227;-76
2022/05/24 10:44:02;;;;;;;7.43;6.20;;;18.90;90.80;;;;;;5064112;28;20876;-76
2022/05/24 10:46:37;;;;;;;7.87;6.47;;;18.60;91.60;;;;;;5072554;28;20230;-76
2022/05/24 10:49:11;;;;;;;8.03;6.03;;;18.50;92.40;;;;;;5056584;28;20218;-77
2022/05/24 10:51:48;;;;;;;6.97;6.27;;;18.30;93.00;;;;;;5057290;28;20240;-76
2022/05/24 10:54:23;;;;;;;9.20;6.53;;;18.30;93.90;;;;;;5061406;28;20798;-77
2022/05/24 10:56:54;;;;;;;9.07;6.40;;;18.20;94.60;;;;;;5057954;28;20233;-77
2022/05/24 10:59:37;;;;;;;7.30;5.40;;;18.20;95.40;;;;;;5057662;28;20247;-76
2022/05/24 11:02:13;;;;;;;9.13;6.00;;;18.20;95.40;;;;;;5051424;28;20219;-76
2022/05/24 11:04:46;;;;;;;7.50;5.80;;;18.20;95.40;;;;;;5079872;28;20225;-75
2022/05/24 11:07:18;;;;;;;9.60;6.77;;;18.10;96.10;;;;;;5077613;28;20808;-79
2022/05/24 11:09:55;;;;;;;8.53;6.03;;;18.10;96.50;;;;;;5060181;28;20593;-75
2022/05/24 11:12:26;;;;;;;8.53;6.63;;;18.00;96.50;;;;;;5070941;28;20222;-77
2022/05/24 11:14:58;;;;;;;10.30;7.73;;;17.80;97.00;;;;;;5081156;27;20318;-76
2022/05/24 11:17:24;;;;;;;12.23;9.33;;;17.70;97.70;;;;;;5083659;28;20229;-77
2022/05/24 11:19:55;;;;;;;10.07;8.60;;;17.60;97.50;;;;;;5085147;27;20233;-77
2022/05/24 11:22:27;;;;;;;10.23;8.37;;;17.40;97.60;;;;;;5081118;27;20226;-77
2022/05/24 11:24:59;;;;;;;11.23;8.33;;;17.30;97.90;;;;;;5081383;27;20211;-76
2022/05/24 11:27:30;;;;;;;11.60;8.90;;;17.10;98.30;;;;;;5077916;28;20231;-76
2022/05/24 11:30:00;;;;;;;10.77;8.57;;;17.00;98.80;;;;;;5074628;28;20210;-77
2022/05/24 11:32:34;;;;;;;11.23;7.77;;;16.80;99.10;;;;;;5082451;27;20218;-77
2022/05/24 11:35:06;;;;;;;10.80;8.73;;;16.70;99.30;;;;;;5084527;28;20248;-77
2022/05/24 11:37:35;;;;;;;8.80;7.40;;;16.50;99.40;;;;;;5086131;27;20226;-77
2022/05/24 11:40:30;;;;;;;11.30;7.57;;;16.30;99.40;;;;;;5084837;28;20226;-77
2022/05/24 11:42:57;;;;;;;9.00;7.17;;;16.10;99.90;;;;;;5079803;28;20221;-76
2022/05/24 11:45:55;;;;;;;7.10;5.87;;;15.90;99.80;;;;;;5083796;28;20703;-77
2022/05/24 11:48:23;;;;;;;8.80;6.33;;;15.70;99.90;;;;;;5075431;28;20217;-77
2022/05/24 11:50:51;;;;;;;7.93;6.57;;;15.70;99.90;;;;;;5085963;28;20313;-77
2022/05/24 11:53:37;;;;;;;9.33;6.77;;;15.60;99.90;;;;;;5081066;28;20254;-78
2022/05/24 11:56:19;;;;;;;7.87;6.30;;;15.60;99.90;;;;;;5083790;28;20230;-76
2022/05/24 11:58:59;;;;;;;8.53;6.20;;;15.60;99.90;;;;;;5075708;28;20551;-77
2022/05/24 12:01:49;;;;;;;6.00;5.40;;;15.70;99.90;;;;;;5078233;27;20291;-78
2022/05/24 12:10:25;;;;;;;5.67;3.50;;;16.00;99.90;;;;;;5079852;28;20234;-79
2022/05/24 12:12:58;;;;;;;5.57;3.50;;;16.10;99.90;;;;;;5083991;28;20703;-77
2022/05/24 12:15:27;;;;;;;8.17;3.60;;;16.10;99.90;;;;;;5079115;28;20224;-78
2022/05/24 12:18:16;;;;;;;8.30;4.57;;;16.20;99.90;;;;;;5086981;28;20797;-77
2022/05/24 12:20:59;;;;;;;8.33;4.83;;;16.20;99.90;;;;;;5086438;28;21679;-78
2022/05/24 12:23:41;;;;;;;7.77;4.43;;;16.30;99.90;;;;;;5090557;27;20222;-79
2022/05/24 12:26:11;;;;;;;6.70;5.23;;;16.60;99.90;;;;;;5083891;28;20251;-78
2022/05/24 12:28:50;;;;;;;6.67;4.70;;;16.80;99.90;;;;;;5083581;27;20226;-78
2022/05/24 12:31:30;;;;;;;6.53;5.20;;;17.10;99.90;;;;;;5091077;27;20248;-78
2022/05/24 12:34:00;;;;;;;5.67;4.60;;;17.40;99.90;;;;;;5075881;28;20690;-78
2022/05/24 12:36:43;;;;;;;7.20;4.60;;;17.70;99.80;;;;;;5090944;28;20237;-77
2022/05/24 12:39:16;;;;;;;7.43;4.97;;;17.90;99.40;;;;;;5079286;28;20225;-78
2022/05/24 12:41:45;;;;;;;6.43;4.33;;;18.00;99.40;;;;;;5077596;28;20220;-77
2022/05/24 12:44:17;;;;;;;7.10;4.50;;;18.20;99.30;;;;;;5075965;28;20222;-77
2022/05/24 12:46:50;;;;;;;7.63;4.40;;;18.40;98.70;;;;;;5079216;28;20313;-77
2022/05/24 12:49:20;;;;;;;5.77;3.50;;;18.60;97.60;;;;;;5075574;28;20261;-77
2022/05/24 12:51:47;;;;;;;5.80;3.80;;;18.80;97.10;;;;;;5072511;28;21075;-77
2022/05/24 12:54:26;;;;;;;6.60;3.63;;;18.80;96.80;;;;;;5073552;28;20805;-79
2022/05/24 12:56:56;;;;;;;6.60;3.65;;;18.90;96.80;;;;;;5059154;28;20610;-80
2022/05/24 12:59:31;;;;;;;7.10;4.15;;;19.00;95.90;;;;;;5060296;28;20243;-82
2022/05/24 13:01:58;;;;;;;6.63;3.58;;;19.00;95.70;;;;;;5057030;28;20219;-79
2022/05/24 13:04:27;;;;;;;3.47;3.13;;;19.20;95.80;;;;;;5060940;27;20435;-80
2022/05/24 13:07:36;;;;;;;5.68;2.80;;;19.40;95.20;;;;;;5073243;28;20228;-81
2022/05/24 13:10:06;;;;;;;5.28;2.45;;;19.60;93.80;;;;;;5057490;28;20219;-80
2022/05/24 13:12:34;;;;;;;4.10;2.50;;;19.80;92.90;;;;;;5056747;28;20259;-80
2022/05/24 13:15:03;;;;;;;6.30;2.63;;;20.00;92.80;;;;;;5056112;28;20569;-78
2022/05/24 13:17:38;;;;;;;3.92;2.38;;;20.10;91.90;;;;;;5058500;28;20725;-78
2022/05/24 13:20:09;;;;;;;4.88;2.53;;;20.10;91.20;;;;;;5078988;28;20268;-78
2022/05/24 13:22:46;;;;;;;2.60;2.30;;;20.20;90.50;;;;;;5080690;28;20223;-78
2022/05/24 13:25:17;;;;;;;4.30;2.80;;;20.10;90.80;;;;;;5080803;28;20229;-78
2022/05/24 13:27:55;;;;;;;5.18;2.60;;;20.10;90.80;;;;;;5079680;28;20676;-78
2022/05/24 13:33:35;;;;;;;4.15;2.55;;;19.80;90.30;;;;;;5086364;27;20313;-78
2022/05/24 13:36:18;;;;;;;2.58;2.38;;;19.70;90.20;;;;;;5083497;27;20267;-78
2022/05/24 13:38:47;;;;;;;4.15;2.53;;;19.50;90.00;;;;;;5053685;28;20586;-77
2022/05/24 13:41:27;;;;;;;5.07;2.90;;;19.40;90.20;;;;;;5055141;28;20310;-79